Terminal Aerodrome Forecast
Issued by NWS

Home | Current Version | Previous Version | Text Only | Print | Product List | Glossary Off
Versions: 1 2 3 4 5 6 7 8 9 10 11 12 13 14 15 16 17

000
FTUS43 KICT 281403 AAA
TAFRSL
TAF AMD
KRSL 281403Z 2814/0112 16010KT 5SM -SN BR OVC035
      TEMPO 2814/2816 1SM -SN BR OVC012
     FM281600 16011KT 6SM -SN OVC025
     FM010700 20006KT 4SM -SN BKN008=

USA.gov is the U.S. government's official web portal to all federal, state and local government web resources and services.